HDH weather

Dillingham Airfield
Mokuleia, Hawaii, United States

Public forecast

Using degrees Fahrenheit for public forecast. Weather courtesy of forecast.io.

Closest aviation weather report (METAR) to Dillingham Airfield

Closest report is Wheeler Army Airfield, 10.5 nm (19.4 km) ESE. Retrieved 2019/12/11 20:56 UTC (1 hour ago):

PHHI 112056Z AUTO 14003KT 10SM FEW030 27/20 A3007 RMK AO2 SLP173 T02660199 58001

Closest aviation forecast (TAF) to Dillingham Airfield

Forecast is more than 6 hours old.

Closest forecast is Wheeler Army Airfield, 10.5 nm (19.4 km) ESE. Retrieved 2019/12/11 15:03 UTC (7 hours ago):

TAF PHHI 111500Z 1115/1221 06009KT 9999 SCT030 QNH3005INS TEMPO 1202/1206 BKN025 TX28/1200Z TN14/1117Z